Time;durP1;ratioP1;P1;durP2;ratioP2;P2;SDS_P1;SDS_P2;PMS_P1;PMS_P2;Temp;Humidity;BMP_temperature;BMP_pressure;BME280_temperature;BME280_humidity;BME280_pressure;Samples;Min_cycle;Max_cycle;Signal;HPM_P1;HPM_P2
2021/07/20 00:00:42;;;;;;;2.10;1.27;;;;;;;18.45;60.30;99115.94;5088184;28;42897;-78
2021/07/20 00:03:11;;;;;;;1.97;1.13;;;;;;;18.45;60.43;99122.16;5089518;28;42549;-78
2021/07/20 00:05:41;;;;;;;2.60;1.37;;;;;;;18.42;60.16;99121.63;5051725;28;39168;-78
2021/07/20 00:08:11;;;;;;;2.30;1.50;;;;;;;18.37;60.27;99122.00;5048007;28;40793;-78
2021/07/20 00:10:42;;;;;;;2.07;1.60;;;;;;;18.33;60.61;99127.78;5069104;28;42733;-78
2021/07/20 00:13:11;;;;;;;1.63;1.13;;;;;;;18.24;60.40;99116.91;5071527;28;43034;-78
2021/07/20 00:15:39;;;;;;;1.20;1.10;;;;;;;18.24;60.49;99135.69;5069200;28;40193;-79
2021/07/20 00:18:09;;;;;;;1.73;1.20;;;;;;;18.17;60.76;99126.50;5070754;28;40955;-79
2021/07/20 00:20:42;;;;;;;1.50;1.40;;;;;;;18.06;60.97;99109.66;5053622;28;43180;-78
2021/07/20 00:23:11;;;;;;;4.53;2.23;;;;;;;18.08;61.15;99124.63;5053495;28;41649;-78
2021/07/20 00:25:40;;;;;;;1.30;1.00;;;;;;;18.06;61.24;99121.22;5052312;28;39395;-78
2021/07/20 00:28:08;;;;;;;1.37;1.27;;;;;;;17.96;61.46;99115.00;5071634;28;41864;-79
2021/07/20 00:30:36;;;;;;;1.40;0.90;;;;;;;17.98;61.14;99129.09;5053321;28;41892;-78
2021/07/20 00:33:03;;;;;;;2.30;1.57;;;;;;;17.94;61.09;99127.66;5053394;28;41394;-79
2021/07/20 00:35:31;;;;;;;4.00;1.43;;;;;;;17.89;61.04;99125.41;5070615;28;41153;-78
2021/07/20 00:38:00;;;;;;;2.97;1.70;;;;;;;17.78;60.92;99113.94;5081846;28;42567;-78
2021/07/20 00:40:31;;;;;;;1.57;1.03;;;;;;;17.80;61.11;99120.03;5048363;28;41832;-78
2021/07/20 00:43:02;;;;;;;1.57;1.43;;;;;;;17.62;61.01;99105.53;5082813;28;41345;-78
2021/07/20 00:45:30;;;;;;;2.73;1.67;;;;;;;17.70;61.10;99124.47;5054155;28;38908;-78
2021/07/20 00:47:59;;;;;;;1.40;1.10;;;;;;;17.63;61.18;99120.63;5065808;28;40709;-78
2021/07/20 00:50:29;;;;;;;1.50;1.40;;;;;;;17.55;61.51;99122.16;5053270;28;42194;-78
2021/07/20 00:52:57;;;;;;;2.70;1.50;;;;;;;17.49;62.69;99116.44;5053782;28;42468;-78
2021/07/20 00:55:26;;;;;;;1.20;1.10;;;;;;;17.48;62.29;99115.59;5069217;28;40375;-78
2021/07/20 00:57:53;;;;;;;2.20;1.33;;;;;;;17.32;62.46;99095.63;5070809;28;41694;-78
2021/07/20 01:00:24;;;;;;;2.10;1.53;;;;;;;17.42;62.85;99110.78;5070279;28;43263;-78
2021/07/20 01:02:53;;;;;;;2.60;1.43;;;;;;;17.38;62.48;99112.03;5050095;28;41434;-78
2021/07/20 01:05:24;;;;;;;1.10;1.00;;;;;;;17.34;62.60;99113.28;5071263;28;40952;-78
2021/07/20 01:07:54;;;;;;;1.90;1.30;;;;;;;17.31;62.79;99107.34;5088721;28;41836;-78
2021/07/20 01:10:24;;;;;;;1.53;1.40;;;;;;;17.25;62.68;99108.72;5070517;28;42907;-77
2021/07/20 01:12:56;;;;;;;1.63;1.23;;;;;;;17.20;62.68;99105.56;5056952;28;43491;-78
2021/07/20 01:15:24;;;;;;;1.97;1.10;;;;;;;17.16;63.00;99104.16;5057933;28;39198;-78
2021/07/20 01:17:54;;;;;;;1.70;1.30;;;;;;;17.12;62.91;99108.06;5056935;28;40921;-78
2021/07/20 01:20:24;;;;;;;2.40;1.43;;;;;;;17.04;63.06;99103.38;5105242;28;43623;-78
2021/07/20 01:23:00;;;;;;;1.20;1.10;;;;;;;17.03;63.14;99109.72;5107674;28;42349;-78
2021/07/20 01:25:30;;;;;;;1.30;1.10;;;;;;;16.98;62.92;99111.06;5074778;28;41725;-78
2021/07/20 01:28:02;;;;;;;2.63;1.20;;;;;;;16.95;63.21;99105.97;5054422;28;44276;-79
2021/07/20 01:30:32;;;;;;;1.70;1.17;;;;;;;16.85;62.86;99100.53;5092059;28;43599;-78
2021/07/20 01:33:02;;;;;;;1.53;1.27;;;;;;;16.94;63.21;99112.31;5053897;28;42532;-79
2021/07/20 01:35:31;;;;;;;1.77;1.50;;;;;;;16.96;63.21;99115.69;5057299;28;38903;-78
2021/07/20 01:38:03;;;;;;;1.47;1.37;;;;;;;17.01;62.65;99105.47;5054108;28;41696;-78
2021/07/20 01:40:33;;;;;;;2.47;1.10;;;;;;;17.09;62.53;99113.66;5056993;28;41939;-78
2021/07/20 01:43:05;;;;;;;0.90;0.80;;;;;;;17.18;62.41;99112.91;5071235;28;42315;-78
2021/07/20 01:45:36;;;;;;;1.90;1.00;;;;;;;17.24;62.12;99109.69;5056087;28;39102;-81
2021/07/20 01:48:06;;;;;;;2.50;1.53;;;;;;;17.33;61.97;99108.88;5054229;28;40932;-79
2021/07/20 01:50:36;;;;;;;1.57;1.37;;;;;;;17.37;61.80;99113.00;5057155;28;42907;-78
2021/07/20 01:53:05;;;;;;;2.37;1.87;;;;;;;17.42;61.92;99116.16;5073303;28;43140;-78
2021/07/20 01:55:36;;;;;;;2.10;1.57;;;;;;;17.44;62.67;99111.47;5073686;28;40123;-78
2021/07/20 01:58:06;;;;;;;1.40;1.20;;;;;;;17.46;62.33;99112.22;5072903;28;42596;-79
2021/07/20 02:00:56;;;;;;;1.80;1.30;;;;;;;17.48;61.95;99115.59;5073032;28;43313;-78
2021/07/20 02:03:34;;;;;;;2.87;1.80;;;;;;;17.48;62.21;99110.25;5088654;28;41207;-78
2021/07/20 02:09:13;;;;;;;1.20;1.00;;;;;;;17.45;62.31;99105.16;5087950;28;42016;-78
2021/07/20 02:11:45;;;;;;;1.27;1.07;;;;;;;17.41;62.31;99106.41;5053684;28;41741;-78
2021/07/20 02:14:28;;;;;;;1.27;1.17;;;;;;;17.28;62.73;99091.53;5073290;28;43073;-79
2021/07/20 02:17:15;;;;;;;1.67;1.30;;;;;;;17.25;63.35;99100.69;5072433;28;41292;-79
2021/07/20 02:19:49;;;;;;;1.73;1.63;;;;;;;17.19;63.23;99098.50;5073442;28;41787;-78
2021/07/20 02:22:40;;;;;;;1.20;1.10;;;;;;;17.12;63.43;99097.34;5058857;28;43548;-78
2021/07/20 02:25:10;;;;;;;2.10;1.17;;;;;;;17.05;63.86;99099.72;5073525;28;42482;-79
2021/07/20 02:27:41;;;;;;;1.77;1.63;;;;;;;16.96;63.82;99089.78;5056283;28;40517;-78
2021/07/20 02:30:21;;;;;;;1.57;1.00;;;;;;;16.95;63.57;99106.81;5053403;28;41730;-78
2021/07/20 02:32:49;;;;;;;2.10;1.17;;;;;;;16.93;63.72;99099.91;5107081;28;43099;-78
2021/07/20 02:35:25;;;;;;;2.10;1.23;;;;;;;16.87;64.06;99096.78;5053597;28;41060;-78
2021/07/20 02:37:56;;;;;;;2.20;1.67;;;;;;;16.82;63.62;99093.63;5072941;28;40888;-78
2021/07/20 02:40:26;;;;;;;1.20;1.10;;;;;;;16.77;63.87;99087.81;5072416;28;42033;-79
2021/07/20 02:43:00;;;;;;;1.33;1.10;;;;;;;16.69;64.23;99087.59;5055935;28;43062;-79
2021/07/20 02:45:32;;;;;;;2.33;1.70;;;;;;;16.56;64.48;99072.72;5073366;28;42690;-78
2021/07/20 02:48:03;;;;;;;2.07;1.10;;;;;;;16.63;64.44;99090.81;5103974;28;40967;-78
2021/07/20 02:50:34;;;;;;;1.53;1.43;;;;;;;16.61;64.08;99092.72;5071156;28;42032;-78
2021/07/20 02:53:16;;;;;;;1.87;1.50;;;;;;;16.59;64.65;99099.16;5055674;28;41681;-79
2021/07/20 02:56:05;;;;;;;1.53;1.40;;;;;;;16.55;64.89;99098.59;5052945;28;41242;-78
2021/07/20 02:58:44;;;;;;;2.17;1.30;;;;;;;16.46;64.83;99088.66;5072671;28;38995;-79
2021/07/20 03:01:17;;;;;;;2.50;1.40;;;;;;;16.39;65.13;99082.13;5072066;28;41709;-78
2021/07/20 03:03:45;;;;;;;2.10;1.57;;;;;;;16.45;65.00;99102.97;5072575;28;43845;-79
2021/07/20 03:06:14;;;;;;;1.47;1.20;;;;;;;16.36;65.06;99082.38;5063207;28;41566;-78
2021/07/20 03:08:45;;;;;;;1.90;1.73;;;;;;;16.40;64.78;99100.72;5104438;28;41916;-78
2021/07/20 03:11:36;;;;;;;1.50;1.27;;;;;;;16.40;64.67;99106.06;5054300;28;41705;-78
2021/07/20 03:14:12;;;;;;;1.93;1.40;;;;;;;16.40;64.64;99099.88;5048630;28;41818;-79
2021/07/20 03:16:50;;;;;;;1.43;1.33;;;;;;;16.39;64.94;99103.50;5072333;28;42488;-78
2021/07/20 03:19:22;;;;;;;1.67;1.33;;;;;;;16.32;64.99;99091.63;5055347;28;39277;-78
2021/07/20 03:21:53;;;;;;;1.47;1.07;;;;;;;16.37;65.14;99100.09;5072074;28;41981;-78
2021/07/20 03:24:25;;;;;;;1.30;1.17;;;;;;;16.33;64.70;99099.50;5054954;28;41771;-79
2021/07/20 03:26:58;;;;;;;1.50;0.97;;;;;;;16.33;65.40;99099.50;5071449;28;43271;-79
2021/07/20 03:29:29;;;;;;;1.37;1.23;;;;;;;16.29;65.14;99106.09;5072216;28;40324;-78
2021/07/20 03:31:58;;;;;;;3.20;2.00;;;;;;;16.27;65.36;99101.84;5089176;28;42791;-79
2021/07/20 03:34:27;;;;;;;1.97;1.10;;;;;;;16.24;65.45;99099.41;5071106;28;43108;-78
2021/07/20 03:36:56;;;;;;;1.63;1.20;;;;;;;16.10;65.58;99093.38;5053837;28;42137;-80
2021/07/20 03:39:25;;;;;;;1.80;1.57;;;;;;;16.16;65.60;99103.56;5088934;28;39949;-78
2021/07/20 03:41:53;;;;;;;1.70;1.50;;;;;;;16.03;65.42;99092.19;5055519;28;41623;-78
2021/07/20 03:44:22;;;;;;;1.73;1.27;;;;;;;16.10;65.74;99104.06;5051804;28;42122;-79
2021/07/20 03:46:51;;;;;;;1.80;1.43;;;;;;;16.07;65.63;99098.97;5054925;28;41261;-78
2021/07/20 03:49:20;;;;;;;2.70;1.77;;;;;;;16.07;66.00;99098.13;5071779;28;40814;-79
2021/07/20 03:51:51;;;;;;;1.83;1.50;;;;;;;15.96;66.03;99085.63;5054695;28;41076;-79
2021/07/20 03:54:21;;;;;;;1.50;1.20;;;;;;;16.04;65.86;99101.91;5055355;28;41805;-79
2021/07/20 03:56:51;;;;;;;2.53;1.27;;;;;;;16.02;65.80;99103.00;5054651;28;41149;-78
2021/07/20 03:59:20;;;;;;;1.63;1.37;;;;;;;16.04;65.92;99104.56;5072196;28;40753;-79
2021/07/20 04:02:09;;;;;;;1.53;1.30;;;;;;;16.05;65.93;99108.94;5069019;28;41219;-79
2021/07/20 04:04:41;;;;;;;2.37;2.17;;;;;;;16.05;66.03;99116.97;5054890;28;42126;-79
2021/07/20 04:07:14;;;;;;;1.53;1.43;;;;;;;15.93;66.13;99096.56;5054702;28;42779;-79
2021/07/20 04:10:01;;;;;;;1.07;1.00;;;;;;;15.89;66.03;99087.09;5088078;28;40232;-79
2021/07/20 04:12:48;;;;;;;0.93;0.90;;;;;;;15.94;66.36;99092.09;5088100;28;42794;-79
2021/07/20 04:15:26;;;;;;;1.63;1.13;;;;;;;15.98;66.25;99105.06;5052611;28;43230;-79
2021/07/20 04:18:05;;;;;;;2.10;1.03;;;;;;;16.08;66.41;99122.03;5087020;28;43215;-79
2021/07/20 04:20:33;;;;;;;2.60;1.67;;;;;;;16.14;66.41;99124.22;5089786;28;40010;-79
2021/07/20 04:23:01;;;;;;;2.10;1.30;;;;;;;16.19;66.29;99123.84;5053483;28;39741;-78
2021/07/20 04:25:36;;;;;;;1.47;0.90;;;;;;;16.21;65.88;99118.38;5054441;28;41945;-78
2021/07/20 04:28:08;;;;;;;1.70;1.27;;;;;;;16.27;66.06;99131.25;5051898;28;42612;-78
2021/07/20 04:30:38;;;;;;;2.67;1.63;;;;;;;16.18;66.08;99100.78;5053832;28;39281;-78
2021/07/20 04:33:08;;;;;;;2.10;1.30;;;;;;;16.43;66.37;99131.69;5053466;28;40722;-79
2021/07/20 04:35:56;;;;;;;1.93;1.50;;;;;;;16.52;65.90;99130.94;5088489;28;41681;-79
2021/07/20 04:38:26;;;;;;;1.73;1.43;;;;;;;16.52;66.12;99114.88;5070293;28;41669;-78
2021/07/20 04:40:54;;;;;;;1.90;1.70;;;;;;;16.66;65.85;99128.00;5089552;28;40921;-79
2021/07/20 04:43:23;;;;;;;3.70;1.70;;;;;;;16.72;66.25;99132.81;5071174;28;42619;-80
2021/07/20 04:45:54;;;;;;;2.70;1.37;;;;;;;16.76;66.14;99130.75;5104156;27;43090;-79
2021/07/20 04:48:24;;;;;;;1.43;1.33;;;;;;;16.80;66.06;99130.38;5086591;28;42297;-79
2021/07/20 04:51:03;;;;;;;2.23;1.20;;;;;;;16.73;66.02;99102.44;5092226;28;41596;-79
2021/07/20 04:53:37;;;;;;;1.93;1.77;;;;;;;16.96;65.67;99134.41;5091885;28;44350;-79
2021/07/20 04:56:12;;;;;;;1.40;1.10;;;;;;;17.04;65.82;99142.66;5091900;28;43538;-79
2021/07/20 04:58:42;;;;;;;2.20;1.40;;;;;;;17.12;65.43;99132.16;5066243;28;41006;-79
2021/07/20 05:01:13;;;;;;;1.27;1.10;;;;;;;17.20;65.25;99137.69;5075154;27;39193;-79
2021/07/20 05:03:43;;;;;;;1.47;1.37;;;;;;;17.30;65.12;99133.28;5092079;28;42535;-79
2021/07/20 05:06:26;;;;;;;4.10;1.27;;;;;;;17.40;64.98;99138.69;5086095;28;42913;-78
2021/07/20 05:08:56;;;;;;;1.70;1.40;;;;;;;17.51;64.92;99142.13;5072471;28;43383;-79
2021/07/20 05:11:24;;;;;;;1.90;1.70;;;;;;;17.58;65.10;99140.59;5055118;28;39001;-80
2021/07/20 05:13:52;;;;;;;1.47;1.37;;;;;;;17.56;65.25;99121.13;5054343;28;40588;-79
2021/07/20 05:16:24;;;;;;;1.50;1.30;;;;;;;17.71;65.31;99147.59;5071864;28;43366;-79
2021/07/20 05:19:05;;;;;;;1.80;1.40;;;;;;;17.68;65.13;99126.47;5071977;28;43307;-79
2021/07/20 05:21:52;;;;;;;1.90;1.10;;;;;;;17.89;64.86;99151.38;5070705;28;39059;-79
2021/07/20 05:24:25;;;;;;;2.90;1.70;;;;;;;17.80;64.67;99128.06;5105601;28;41467;-81
2021/07/20 05:27:00;;;;;;;3.93;1.30;;;;;;;18.06;64.55;99141.81;5078930;28;42937;-82
2021/07/20 05:29:30;;;;;;;2.07;1.37;;;;;;;18.11;64.61;99140.44;5074806;28;42109;-82
2021/07/20 05:32:02;;;;;;;2.53;1.80;;;;;;;18.24;64.30;99154.44;5071491;28;39940;-81
2021/07/20 05:34:32;;;;;;;2.30;2.10;;;;;;;18.35;63.91;99152.63;5070571;28;41001;-81
2021/07/20 05:37:01;;;;;;;1.37;1.20;;;;;;;18.44;64.01;99163.38;5070870;28;43997;-83
2021/07/20 05:39:38;;;;;;;1.67;1.30;;;;;;;18.57;64.06;99163.13;5070638;28;41652;-81
2021/07/20 05:42:19;;;;;;;2.70;2.00;;;;;;;18.59;63.37;99145.09;5053685;28;39863;-81
2021/07/20 05:44:50;;;;;;;3.30;1.20;;;;;;;18.79;63.09;99160.19;5071251;28;41569;-81
2021/07/20 05:47:18;;;;;;;2.10;1.20;;;;;;;18.90;62.82;99160.09;5052987;28;41822;-81
2021/07/20 05:49:48;;;;;;;1.53;1.27;;;;;;;19.03;62.81;99170.53;5054213;28;41459;-81
2021/07/20 05:52:20;;;;;;;1.93;1.70;;;;;;;19.08;63.06;99159.38;5070683;28;40319;-81
2021/07/20 05:54:54;;;;;;;2.53;2.23;;;;;;;19.16;62.30;99151.47;5071496;28;41654;-82
2021/07/20 05:57:32;;;;;;;2.40;1.77;;;;;;;19.33;61.72;99177.56;5054133;28;43109;-82
2021/07/20 06:00:05;;;;;;;2.33;1.60;;;;;;;19.46;61.58;99171.91;5074488;28;43313;-81
2021/07/20 06:02:55;;;;;;;1.60;1.50;;;;;;;19.48;61.14;99159.19;5091865;28;40291;-82
2021/07/20 06:05:28;;;;;;;2.17;1.40;;;;;;;19.45;61.44;99136.13;5074345;28;42680;-82
2021/07/20 06:07:56;;;;;;;1.73;1.57;;;;;;;19.66;61.50;99152.06;5073924;28;41810;-82
2021/07/20 06:10:25;;;;;;;2.33;1.73;;;;;;;19.92;59.82;99185.38;5057503;28;41208;-81
2021/07/20 06:12:54;;;;;;;1.80;1.33;;;;;;;19.95;60.12;99171.66;5056735;28;40071;-81
2021/07/20 06:15:23;;;;;;;1.87;1.40;;;;;;;20.16;60.07;99184.84;5072993;28;41979;-82
2021/07/20 06:17:51;;;;;;;1.33;1.17;;;;;;;20.25;59.48;99180.44;5056640;28;42812;-81
2021/07/20 06:20:18;;;;;;;1.73;1.47;;;;;;;20.36;58.95;99178.44;5065129;28;42324;-78
2021/07/20 06:22:52;;;;;;;1.40;1.30;;;;;;;20.54;58.91;99174.91;5071736;28;38991;-78
2021/07/20 06:25:26;;;;;;;1.37;1.27;;;;;;;20.71;57.92;99190.25;5092053;28;42778;-78
2021/07/20 06:27:53;;;;;;;1.77;1.50;;;;;;;20.87;57.73;99192.28;5093148;28;41986;-82
2021/07/20 06:30:21;;;;;;;1.63;1.37;;;;;;;21.01;57.78;99184.53;5072875;28;41568;-78
2021/07/20 06:32:52;;;;;;;1.40;1.30;;;;;;;21.13;57.34;99196.75;5110950;28;40992;-86
2021/07/20 06:35:20;;;;;;;2.13;1.23;;;;;;;21.19;57.01;99187.22;5063253;28;41122;-85
2021/07/20 06:37:50;;;;;;;1.90;1.57;;;;;;;21.40;57.54;99201.19;5054222;28;42570;-84
2021/07/20 06:40:20;;;;;;;1.80;1.53;;;;;;;21.53;56.51;99206.19;5053083;28;41599;-87
2021/07/20 06:42:49;;;;;;;1.57;1.47;;;;;;;21.59;56.20;99197.47;5053052;28;40254;-85
2021/07/20 06:45:17;;;;;;;1.43;1.20;;;;;;;21.73;55.46;99213.09;5082875;28;41850;-88
2021/07/20 06:47:47;;;;;;;1.80;1.60;;;;;;;21.85;56.21;99206.44;5076109;28;42714;-84
2021/07/20 06:50:17;;;;;;;1.40;1.20;;;;;;;21.95;55.79;99216.25;5076923;28;41397;-81
2021/07/20 06:52:46;;;;;;;1.97;1.57;;;;;;;22.06;54.57;99213.31;5093465;28;40215;-84
2021/07/20 06:55:15;;;;;;;1.80;1.10;;;;;;;22.30;52.91;99221.53;5081798;28;41015;-84
2021/07/20 06:57:46;;;;;;;10.60;2.03;;;;;;;22.64;52.96;99226.06;5072894;28;43217;-80
2021/07/20 07:00:17;;;;;;;3.57;1.43;;;;;;;22.81;52.80;99215.19;5071892;28;41188;-80
2021/07/20 07:02:49;;;;;;;2.33;1.83;;;;;;;22.93;51.90;99213.00;5090702;28;40660;-82
2021/07/20 07:05:18;;;;;;;2.20;1.40;;;;;;;23.17;50.98;99226.56;5069798;28;42121;-83
2021/07/20 07:07:48;;;;;;;1.53;1.10;;;;;;;23.24;50.35;99216.75;5069185;28;41982;-83
2021/07/20 07:10:19;;;;;;;1.93;1.73;;;;;;;23.49;49.71;99235.72;5076322;28;41524;-86
2021/07/20 07:12:50;;;;;;;1.30;1.20;;;;;;;23.72;50.03;99228.66;5051493;28;39344;-82
2021/07/20 07:15:19;;;;;;;1.93;1.53;;;;;;;23.82;48.93;99226.59;5044367;28;41539;-82
2021/07/20 07:17:49;;;;;;;1.77;1.27;;;;;;;23.88;49.21;99225.91;5092953;28;43101;-89
2021/07/20 07:20:20;;;;;;;2.20;1.57;;;;;;;24.06;48.50;99239.25;5085670;28;41290;-81
2021/07/20 07:22:49;;;;;;;1.63;1.00;;;;;;;24.10;48.37;99234.34;5037871;28;40008;-86
2021/07/20 07:25:19;;;;;;;1.40;1.00;;;;;;;24.26;48.16;99240.56;5068830;28;41825;-86
2021/07/20 07:27:49;;;;;;;1.67;1.53;;;;;;;24.54;47.81;99249.09;5042679;28;42110;-84
2021/07/20 07:30:18;;;;;;;1.30;0.90;;;;;;;25.01;47.01;99245.50;5046602;28;41430;-84
2021/07/20 07:32:48;;;;;;;1.20;1.10;;;;;;;25.61;45.24;99259.19;5109917;28;39663;-78
2021/07/20 07:35:16;;;;;;;1.10;1.00;;;;;;;26.41;42.88;99267.59;5110722;28;42299;-77
2021/07/20 07:37:46;;;;;;;4.17;1.47;;;;;;;27.67;40.80;99293.66;5074970;28;41833;-78
2021/07/20 07:40:15;;;;;;;2.23;1.53;;;;;;;29.14;38.63;99295.31;5108609;28;43053;-82
2021/07/20 07:42:44;;;;;;;1.40;1.20;;;;;;;30.54;36.44;99292.56;5092986;28;40127;-79
2021/07/20 07:45:14;;;;;;;1.33;1.23;;;;;;;31.49;34.43;99310.94;5066510;28;41168;-81
2021/07/20 07:47:44;;;;;;;1.17;1.07;;;;;;;31.64;33.53;99322.47;5091702;28;42156;-79
2021/07/20 07:50:13;;;;;;;1.47;1.13;;;;;;;31.37;34.01;99315.44;5075300;28;42418;-77
2021/07/20 07:52:42;;;;;;;1.60;1.40;;;;;;;31.25;34.10;99317.19;5110277;28;40231;-82
2021/07/20 07:55:11;;;;;;;1.33;1.23;;;;;;;31.36;33.20;99325.53;5080104;28;42830;-79
2021/07/20 07:57:40;;;;;;;1.30;1.20;;;;;;;31.66;32.83;99320.31;5071372;28;43102;-80
2021/07/20 08:00:10;;;;;;;1.33;1.23;;;;;;;32.41;32.25;99318.50;5089355;28;43147;-80
2021/07/20 08:02:47;;;;;;;1.37;1.27;;;;;;;33.24;30.84;99328.19;5071094;28;39093;-79
2021/07/20 08:05:16;;;;;;;1.40;1.30;;;;;;;33.56;29.65;99343.38;5070922;28;42020;-79
2021/07/20 08:07:44;;;;;;;1.93;1.20;;;;;;;33.43;29.26;99343.56;5090227;28;42818;-79
2021/07/20 08:10:13;;;;;;;0.90;0.90;;;;;;;33.09;30.83;99326.66;5087893;28;42336;-80
2021/07/20 08:12:45;;;;;;;1.50;1.37;;;;;;;32.74;31.24;99318.19;5089650;28;41967;-82
2021/07/20 08:15:16;;;;;;;1.13;1.00;;;;;;;32.16;31.32;99320.38;5081127;28;42181;-83
2021/07/20 08:17:45;;;;;;;1.60;1.40;;;;;;;31.87;32.58;99310.94;5054978;28;41620;-87
2021/07/20 08:20:14;;;;;;;1.40;1.30;;;;;;;31.88;32.81;99314.50;5054648;28;41514;-82
2021/07/20 08:22:42;;;;;;;2.07;1.37;;;;;;;32.16;32.52;99286.63;5088974;28;40213;-83
2021/07/20 08:25:14;;;;;;;1.30;1.20;;;;;;;32.51;32.18;99301.53;5085181;28;41228;-81
2021/07/20 08:27:47;;;;;;;1.50;1.10;;;;;;;32.37;29.80;99320.03;5091366;28;43124;-80
2021/07/20 08:30:18;;;;;;;2.27;2.07;;;;;;;32.29;31.19;99313.97;5082630;28;41716;-80
2021/07/20 08:32:51;;;;;;;1.40;1.30;;;;;;;32.57;31.21;99316.22;5071011;28;40103;-79
2021/07/20 08:35:22;;;;;;;1.83;1.50;;;;;;;33.06;31.63;99310.63;5071330;28;42780;-78
2021/07/20 08:37:52;;;;;;;1.73;1.50;;;;;;;33.23;29.28;99321.00;5087970;28;43059;-81
2021/07/20 08:40:33;;;;;;;1.23;1.13;;;;;;;33.67;29.43;99306.03;5076028;28;41777;-80
2021/07/20 08:43:14;;;;;;;1.87;1.67;;;;;;;34.95;28.33;99325.47;5068164;28;40150;-78
2021/07/20 08:46:05;;;;;;;2.20;1.97;;;;;;;36.74;24.13;99347.81;5067929;28;42016;-79
2021/07/20 08:48:42;;;;;;;1.33;1.17;;;;;;;38.41;23.15;99360.03;5066052;28;43127;-79
2021/07/20 08:51:14;;;;;;;1.70;1.55;;;;;;;39.85;21.36;99353.06;5067757;28;41208;-83
2021/07/20 08:53:50;;;;;;;1.60;1.50;;;;;;;41.11;20.19;99376.34;5061943;28;39020;-82
2021/07/20 08:56:21;;;;;;;1.83;1.30;;;;;;;41.80;19.10;99373.56;5074487;28;41621;-83
2021/07/20 08:58:51;;;;;;;1.38;1.25;;;;;;;42.54;19.91;99358.53;5091184;28;41558;-82
2021/07/20 09:01:28;;;;;;;1.55;1.45;;;;;;;42.56;19.83;99352.69;5061865;28;41323;-87
2021/07/20 09:04:00;;;;;;;1.48;1.38;;;;;;;41.81;19.71;99344.63;5060553;28;41739;-85
2021/07/20 09:06:34;;;;;;;1.25;1.15;;;;;;;40.82;20.26;99346.41;5084867;28;40859;-87
2021/07/20 09:09:07;;;;;;;1.60;1.50;;;;;;;40.39;20.62;99353.41;5070761;28;42722;-84
2021/07/20 09:11:41;;;;;;;1.20;1.13;;;;;;;39.37;21.71;99341.22;5078333;28;42469;-83
2021/07/20 09:14:18;;;;;;;1.60;1.50;;;;;;;37.86;24.00;99300.31;5074836;28;39924;-85
2021/07/20 09:16:52;;;;;;;1.67;1.57;;;;;;;37.12;24.68;99308.31;5073373;28;41127;-85
2021/07/20 09:19:28;;;;;;;1.70;1.60;;;;;;;36.59;25.57;99309.78;5085905;28;41678;-83
2021/07/20 09:22:00;;;;;;;1.53;1.43;;;;;;;36.21;24.83;99310.56;5050665;28;42470;-85
2021/07/20 09:24:32;;;;;;;1.90;1.80;;;;;;;35.15;25.72;99316.78;5071063;28;40108;-82
2021/07/20 09:27:12;;;;;;;1.47;1.17;;;;;;;34.07;26.74;99320.03;5070645;28;41744;-83
2021/07/20 09:29:41;;;;;;;1.40;1.30;;;;;;;33.17;28.54;99301.63;5069826;28;42908;-83
2021/07/20 09:32:28;;;;;;;1.70;1.60;;;;;;;32.31;29.52;99271.56;5070721;28;42214;-85
2021/07/20 09:35:05;;;;;;;1.77;1.63;;;;;;;31.91;29.74;99279.25;5074910;28;39498;-87
2021/07/20 09:37:40;;;;;;;1.90;1.57;;;;;;;31.69;30.06;99292.50;5077220;28;40653;-86
2021/07/20 09:40:25;;;;;;;2.97;1.90;;;;;;;31.57;29.94;99269.59;5093245;28;43073;-83
2021/07/20 09:43:01;;;;;;;1.43;1.33;;;;;;;31.71;29.00;99295.88;5094118;28;41252;-84
2021/07/20 09:45:33;;;;;;;1.60;1.50;;;;;;;32.09;29.81;99282.06;5072077;28;39519;-79
2021/07/20 09:48:18;;;;;;;1.70;1.50;;;;;;;32.62;29.24;99272.53;5092207;28;42210;-88
2021/07/20 09:50:47;;;;;;;2.37;1.70;;;;;;;33.38;28.80;99285.78;5056360;28;43242;-84
2021/07/20 09:53:33;;;;;;;2.73;1.87;;;;;;;34.23;27.56;99267.94;5091181;28;42377;-87
2021/07/20 09:56:28;;;;;;;2.17;1.90;;;;;;;36.48;24.84;99312.63;5070627;28;41141;-86
2021/07/20 09:59:06;;;;;;;2.00;1.70;;;;;;;36.02;24.86;99309.13;5090806;28;41868;-80
2021/07/20 10:01:39;;;;;;;2.20;1.87;;;;;;;35.61;25.74;99302.00;5091479;28;42848;-80
2021/07/20 10:04:23;;;;;;;2.87;1.70;;;;;;;34.45;27.29;99281.09;5056736;28;41761;-81
2021/07/20 10:06:56;;;;;;;2.27;1.80;;;;;;;33.50;27.66;99286.66;5056125;28;39940;-80
2021/07/20 10:09:28;;;;;;;1.33;1.23;;;;;;;32.81;30.40;99275.06;5091073;28;41778;-77
2021/07/20 10:12:00;;;;;;;1.60;1.40;;;;;;;32.30;30.15;99271.78;5089914;28;43783;-78
2021/07/20 10:14:54;;;;;;;3.13;1.70;;;;;;;31.87;31.31;99255.28;5072868;28;42549;-77
2021/07/20 10:17:30;;;;;;;2.70;2.50;;;;;;;31.56;32.58;99256.13;5051051;28;39312;-78
2021/07/20 10:20:05;;;;;;;1.97;1.43;;;;;;;31.43;32.16;99243.34;5073611;28;40999;-83
2021/07/20 10:22:39;;;;;;;2.57;2.03;;;;;;;31.80;31.40;99243.53;5075496;28;43038;-83
2021/07/20 10:25:17;;;;;;;1.60;1.50;;;;;;;32.72;29.53;99270.13;5076864;28;42503;-82
2021/07/20 10:27:51;;;;;;;1.70;1.60;;;;;;;33.71;29.39;99275.13;5050998;28;38727;-83
2021/07/20 10:30:20;;;;;;;1.57;1.47;;;;;;;34.08;27.56;99281.31;5049643;28;41072;-86
2021/07/20 10:32:59;;;;;;;1.53;1.43;;;;;;;34.45;27.62;99265.44;5056278;28;41857;-87
2021/07/20 10:35:35;;;;;;;2.13;1.63;;;;;;;34.65;27.31;99256.78;5082153;28;41637;-86
2021/07/20 10:38:07;;;;;;;1.57;1.23;;;;;;;34.96;28.30;99255.56;5073200;28;40105;-86
2021/07/20 10:40:37;;;;;;;1.63;1.53;;;;;;;35.26;28.22;99280.97;5073353;28;41948;-83
2021/07/20 10:43:09;;;;;;;2.27;1.93;;;;;;;35.70;26.87;99272.97;5073692;28;43034;-89
2021/07/20 10:45:39;;;;;;;3.20;1.17;;;;;;;35.27;27.58;99263.38;5055498;28;41662;-83
2021/07/20 10:48:11;;;;;;;1.93;1.73;;;;;;;34.61;28.09;99274.88;5072574;28;40393;-87
2021/07/20 10:50:50;;;;;;;1.77;1.60;;;;;;;33.79;28.95;99244.56;5056487;28;40622;-88
2021/07/20 10:53:31;;;;;;;1.93;1.47;;;;;;;33.26;29.60;99260.19;5056154;28;42129;-88
2021/07/20 10:56:07;;;;;;;2.20;2.00;;;;;;;33.38;29.11;99245.38;5052925;28;42378;-87
2021/07/20 10:58:51;;;;;;;1.73;1.43;;;;;;;33.75;27.48;99267.25;5069335;28;39330;-82
2021/07/20 11:01:21;;;;;;;1.67;1.57;;;;;;;33.57;27.29;99251.66;5088127;28;42251;-82
2021/07/20 11:04:02;;;;;;;2.80;2.13;;;;;;;33.45;28.47;99259.88;5091078;28;42985;-82
2021/07/20 11:06:36;;;;;;;3.97;2.00;;;;;;;33.25;29.08;99258.50;5055764;28;41420;-79
2021/07/20 11:09:07;;;;;;;1.40;1.30;;;;;;;33.03;29.17;99250.72;5090915;28;40112;-82
2021/07/20 11:11:41;;;;;;;2.13;1.83;;;;;;;33.52;28.76;99257.84;5072337;28;41881;-82
2021/07/20 11:14:10;;;;;;;2.40;1.80;;;;;;;33.88;28.89;99256.03;5090805;28;43213;-81
2021/07/20 11:16:40;;;;;;;2.37;1.90;;;;;;;33.61;29.09;99260.28;5055272;28;41007;-85
2021/07/20 11:19:09;;;;;;;2.47;1.63;;;;;;;33.22;27.20;99269.91;5062090;28;38893;-84
2021/07/20 11:21:40;;;;;;;1.97;1.70;;;;;;;32.92;28.95;99259.72;5075367;28;40905;-83
2021/07/20 11:24:18;;;;;;;2.50;1.70;;;;;;;32.74;29.44;99243.28;5075503;28;42035;-85
2021/07/20 11:26:46;;;;;;;2.17;1.80;;;;;;;32.57;30.16;99250.41;5055721;28;41636;-84
2021/07/20 11:29:14;;;;;;;2.07;1.30;;;;;;;32.31;28.59;99257.84;5090035;28;39868;-80
2021/07/20 11:31:46;;;;;;;1.70;1.60;;;;;;;32.04;29.40;99240.78;5092370;28;42023;-84
2021/07/20 11:34:19;;;;;;;2.20;1.77;;;;;;;31.98;30.33;99249.09;5092166;28;42958;-82
2021/07/20 11:36:49;;;;;;;2.30;1.73;;;;;;;31.78;31.21;99225.44;5054258;28;41072;-82
2021/07/20 11:39:21;;;;;;;1.77;1.60;;;;;;;32.25;30.60;99217.66;5059558;28;40739;-83
2021/07/20 11:41:56;;;;;;;2.20;2.00;;;;;;;32.86;31.10;99230.47;5072320;28;40841;-86
2021/07/20 11:44:36;;;;;;;2.20;1.83;;;;;;;32.62;30.25;99236.88;5071700;28;41670;-79
2021/07/20 11:47:07;;;;;;;2.07;1.87;;;;;;;32.90;29.43;99242.66;5071830;28;42082;-80
2021/07/20 11:49:50;;;;;;;2.43;2.10;;;;;;;33.16;28.61;99247.78;5091811;28;40141;-84
2021/07/20 11:52:26;;;;;;;3.00;1.67;;;;;;;34.69;27.66;99254.41;5069460;28;41774;-78
2021/07/20 11:55:03;;;;;;;2.20;2.00;;;;;;;34.79;27.43;99243.63;5034290;28;41866;-78
2021/07/20 11:58:06;;;;;;;2.60;2.17;;;;;;;34.38;27.23;99259.22;5050717;28;41714;-77
2021/07/20 12:01:08;;;;;;;2.13;1.93;;;;;;;35.39;26.11;99259.72;5059887;28;38895;-80
2021/07/20 12:03:41;;;;;;;2.93;2.27;;;;;;;36.62;24.27;99264.25;5087424;28;41802;-79